sensor_id;sensor_type;location;lat;lon;timestamp;temperature;humidity
6758;DHT22;3416;53.074;8.822;2023-12-29T00:00:43;11.60;99.90
6758;DHT22;3416;53.074;8.822;2023-12-29T00:03:10;11.60;99.90
6758;DHT22;3416;53.074;8.822;2023-12-29T00:05:37;11.50;99.90
6758;DHT22;3416;53.074;8.822;2023-12-29T00:08:05;11.60;99.90
6758;DHT22;3416;53.074;8.822;2023-12-29T00:10:31;11.50;99.90
6758;DHT22;3416;53.074;8.822;2023-12-29T00:12:59;11.60;99.90
6758;DHT22;3416;53.074;8.822;2023-12-29T00:15:28;11.60;99.90
6758;DHT22;3416;53.074;8.822;2023-12-29T00:17:55;11.50;99.90
6758;DHT22;3416;53.074;8.822;2023-12-29T00:20:22;11.50;99.90
6758;DHT22;3416;53.074;8.822;2023-12-29T00:22:49;11.60;99.90
6758;DHT22;3416;53.074;8.822;2023-12-29T00:25:16;11.50;99.90
6758;DHT22;3416;53.074;8.822;2023-12-29T00:27:43;11.40;99.90
6758;DHT22;3416;53.074;8.822;2023-12-29T00:30:10;11.50;99.90
6758;DHT22;3416;53.074;8.822;2023-12-29T00:32:39;11.40;99.90
6758;DHT22;3416;53.074;8.822;2023-12-29T00:35:06;11.40;99.90
6758;DHT22;3416;53.074;8.822;2023-12-29T00:37:33;11.40;99.90
6758;DHT22;3416;53.074;8.822;2023-12-29T00:40:00;11.40;99.90
6758;DHT22;3416;53.074;8.822;2023-12-29T00:42:26;11.40;99.90
6758;DHT22;3416;53.074;8.822;2023-12-29T00:44:53;11.30;99.90
6758;DHT22;3416;53.074;8.822;2023-12-29T00:47:21;11.30;99.90
6758;DHT22;3416;53.074;8.822;2023-12-29T00:49:50;11.30;99.90
6758;DHT22;3416;53.074;8.822;2023-12-29T00:52:17;11.30;99.90
6758;DHT22;3416;53.074;8.822;2023-12-29T00:54:44;11.30;99.90
6758;DHT22;3416;53.074;8.822;2023-12-29T00:57:11;11.20;99.90
6758;DHT22;3416;53.074;8.822;2023-12-29T00:59:38;11.20;99.90
6758;DHT22;3416;53.074;8.822;2023-12-29T01:02:06;11.20;99.90
6758;DHT22;3416;53.074;8.822;2023-12-29T01:04:33;11.30;99.90
6758;DHT22;3416;53.074;8.822;2023-12-29T01:07:02;11.20;99.90
6758;DHT22;3416;53.074;8.822;2023-12-29T01:09:29;11.20;99.90
6758;DHT22;3416;53.074;8.822;2023-12-29T01:11:56;11.20;99.90
6758;DHT22;3416;53.074;8.822;2023-12-29T01:14:23;11.10;99.90
6758;DHT22;3416;53.074;8.822;2023-12-29T01:16:50;11.20;99.90
6758;DHT22;3416;53.074;8.822;2023-12-29T01:19:17;11.20;99.90
6758;DHT22;3416;53.074;8.822;2023-12-29T01:21:43;11.20;99.90
6758;DHT22;3416;53.074;8.822;2023-12-29T01:24:12;11.20;99.90
6758;DHT22;3416;53.074;8.822;2023-12-29T01:26:39;11.10;99.90
6758;DHT22;3416;53.074;8.822;2023-12-29T01:29:06;11.10;99.90
6758;DHT22;3416;53.074;8.822;2023-12-29T01:31:33;11.00;99.90
6758;DHT22;3416;53.074;8.822;2023-12-29T01:34:00;10.90;99.90
6758;DHT22;3416;53.074;8.822;2023-12-29T01:36:27;10.90;99.90
6758;DHT22;3416;53.074;8.822;2023-12-29T01:38:54;10.90;99.90
6758;DHT22;3416;53.074;8.822;2023-12-29T01:41:22;10.80;99.90
6758;DHT22;3416;53.074;8.822;2023-12-29T01:44:18;10.90;99.90
6758;DHT22;3416;53.074;8.822;2023-12-29T01:46:46;10.90;99.90
6758;DHT22;3416;53.074;8.822;2023-12-29T01:49:15;10.90;99.90
6758;DHT22;3416;53.074;8.822;2023-12-29T01:51:44;10.80;99.90
6758;DHT22;3416;53.074;8.822;2023-12-29T01:54:12;10.70;99.90
6758;DHT22;3416;53.074;8.822;2023-12-29T01:56:41;10.50;99.90
6758;DHT22;3416;53.074;8.822;2023-12-29T01:59:08;10.50;99.90
6758;DHT22;3416;53.074;8.822;2023-12-29T02:01:36;10.40;99.90
6758;DHT22;3416;53.074;8.822;2023-12-29T02:04:05;10.40;99.90
6758;DHT22;3416;53.074;8.822;2023-12-29T02:09:14;10.40;99.90
6758;DHT22;3416;53.074;8.822;2023-12-29T02:11:46;10.40;99.90
6758;DHT22;3416;53.074;8.822;2023-12-29T02:14:13;10.30;99.90
6758;DHT22;3416;53.074;8.822;2023-12-29T02:16:45;10.40;99.90
6758;DHT22;3416;53.074;8.822;2023-12-29T02:19:24;10.30;99.90
6758;DHT22;3416;53.074;8.822;2023-12-29T02:21:52;10.40;99.90
6758;DHT22;3416;53.074;8.822;2023-12-29T02:24:19;10.40;99.90
6758;DHT22;3416;53.074;8.822;2023-12-29T02:26:50;10.40;99.90
6758;DHT22;3416;53.074;8.822;2023-12-29T02:29:21;10.40;99.90
6758;DHT22;3416;53.074;8.822;2023-12-29T02:31:53;10.40;99.90
6758;DHT22;3416;53.074;8.822;2023-12-29T02:34:22;10.40;99.90
6758;DHT22;3416;53.074;8.822;2023-12-29T02:36:50;10.30;99.90
6758;DHT22;3416;53.074;8.822;2023-12-29T02:39:18;10.30;99.90
6758;DHT22;3416;53.074;8.822;2023-12-29T02:41:46;10.30;99.90
6758;DHT22;3416;53.074;8.822;2023-12-29T02:44:14;10.30;99.90
6758;DHT22;3416;53.074;8.822;2023-12-29T02:46:53;10.30;99.90
6758;DHT22;3416;53.074;8.822;2023-12-29T02:49:21;10.30;99.90
6758;DHT22;3416;53.074;8.822;2023-12-29T02:51:49;10.30;99.90
6758;DHT22;3416;53.074;8.822;2023-12-29T02:54:16;10.40;99.90
6758;DHT22;3416;53.074;8.822;2023-12-29T02:56:46;10.30;99.90
6758;DHT22;3416;53.074;8.822;2023-12-29T02:59:23;10.20;99.90
6758;DHT22;3416;53.074;8.822;2023-12-29T03:01:55;10.30;99.90
6758;DHT22;3416;53.074;8.822;2023-12-29T03:04:32;10.30;99.90
6758;DHT22;3416;53.074;8.822;2023-12-29T03:07:06;10.20;99.90
6758;DHT22;3416;53.074;8.822;2023-12-29T03:09:35;10.20;99.90
6758;DHT22;3416;53.074;8.822;2023-12-29T03:12:08;10.20;99.90
6758;DHT22;3416;53.074;8.822;2023-12-29T03:14:37;10.20;99.90
6758;DHT22;3416;53.074;8.822;2023-12-29T03:17:11;10.20;99.90
6758;DHT22;3416;53.074;8.822;2023-12-29T03:19:41;10.10;99.90
6758;DHT22;3416;53.074;8.822;2023-12-29T03:22:10;10.00;99.90
6758;DHT22;3416;53.074;8.822;2023-12-29T03:24:41;9.90;99.90
6758;DHT22;3416;53.074;8.822;2023-12-29T03:27:15;9.80;99.90
6758;DHT22;3416;53.074;8.822;2023-12-29T03:29:52;10.00;99.90
6758;DHT22;3416;53.074;8.822;2023-12-29T03:32:30;9.90;99.90
6758;DHT22;3416;53.074;8.822;2023-12-29T03:34:57;9.90;99.90
6758;DHT22;3416;53.074;8.822;2023-12-29T03:37:29;9.90;99.90
6758;DHT22;3416;53.074;8.822;2023-12-29T03:39:58;10.00;99.90
6758;DHT22;3416;53.074;8.822;2023-12-29T03:42:32;9.90;99.90
6758;DHT22;3416;53.074;8.822;2023-12-29T03:45:02;10.00;99.90
6758;DHT22;3416;53.074;8.822;2023-12-29T03:47:31;10.10;99.90
6758;DHT22;3416;53.074;8.822;2023-12-29T03:50:03;10.10;99.90
6758;DHT22;3416;53.074;8.822;2023-12-29T03:52:50;10.20;99.90
6758;DHT22;3416;53.074;8.822;2023-12-29T03:55:28;9.90;99.90
6758;DHT22;3416;53.074;8.822;2023-12-29T03:58:05;9.50;99.90
6758;DHT22;3416;53.074;8.822;2023-12-29T04:00:35;9.10;99.90
6758;DHT22;3416;53.074;8.822;2023-12-29T04:03:11;9.00;99.90
6758;DHT22;3416;53.074;8.822;2023-12-29T04:05:50;8.60;99.90
6758;DHT22;3416;53.074;8.822;2023-12-29T04:08:21;8.40;99.90
6758;DHT22;3416;53.074;8.822;2023-12-29T04:10:50;8.20;99.90
6758;DHT22;3416;53.074;8.822;2023-12-29T04:13:34;8.30;99.90
6758;DHT22;3416;53.074;8.822;2023-12-29T04:16:03;8.30;99.90
6758;DHT22;3416;53.074;8.822;2023-12-29T04:18:38;8.40;99.90
6758;DHT22;3416;53.074;8.822;2023-12-29T04:21:15;8.40;99.90
6758;DHT22;3416;53.074;8.822;2023-12-29T04:24:40;8.40;99.90
6758;DHT22;3416;53.074;8.822;2023-12-29T04:27:29;8.30;99.90
6758;DHT22;3416;53.074;8.822;2023-12-29T04:30:21;8.50;99.90
6758;DHT22;3416;53.074;8.822;2023-12-29T04:32:54;8.50;99.90
6758;DHT22;3416;53.074;8.822;2023-12-29T04:35:45;8.70;99.90
6758;DHT22;3416;53.074;8.822;2023-12-29T04:38:20;8.60;99.90
6758;DHT22;3416;53.074;8.822;2023-12-29T04:41:06;8.70;99.90
6758;DHT22;3416;53.074;8.822;2023-12-29T04:43:49;9.10;99.90
6758;DHT22;3416;53.074;8.822;2023-12-29T04:46:32;9.50;99.90
6758;DHT22;3416;53.074;8.822;2023-12-29T04:49:02;9.70;99.90
6758;DHT22;3416;53.074;8.822;2023-12-29T04:51:33;9.80;99.90
6758;DHT22;3416;53.074;8.822;2023-12-29T04:54:02;10.30;99.90
6758;DHT22;3416;53.074;8.822;2023-12-29T04:56:34;10.40;99.90
6758;DHT22;3416;53.074;8.822;2023-12-29T04:59:02;10.50;99.90
6758;DHT22;3416;53.074;8.822;2023-12-29T05:01:33;10.60;99.90
6758;DHT22;3416;53.074;8.822;2023-12-29T05:04:12;10.60;99.90
6758;DHT22;3416;53.074;8.822;2023-12-29T05:06:41;10.60;99.90
6758;DHT22;3416;53.074;8.822;2023-12-29T05:09:13;10.50;99.90
6758;DHT22;3416;53.074;8.822;2023-12-29T05:11:43;10.70;99.90
6758;DHT22;3416;53.074;8.822;2023-12-29T05:14:11;10.60;99.90
6758;DHT22;3416;53.074;8.822;2023-12-29T05:16:42;10.60;99.90
6758;DHT22;3416;53.074;8.822;2023-12-29T05:19:17;10.70;99.90
6758;DHT22;3416;53.074;8.822;2023-12-29T05:21:46;10.50;99.90
6758;DHT22;3416;53.074;8.822;2023-12-29T05:24:24;10.70;99.90
6758;DHT22;3416;53.074;8.822;2023-12-29T05:26:51;10.60;99.90
6758;DHT22;3416;53.074;8.822;2023-12-29T05:29:19;10.60;99.90
6758;DHT22;3416;53.074;8.822;2023-12-29T05:31:49;10.50;99.90
6758;DHT22;3416;53.074;8.822;2023-12-29T05:34:18;10.50;99.90
6758;DHT22;3416;53.074;8.822;2023-12-29T05:36:45;10.40;99.90
6758;DHT22;3416;53.074;8.822;2023-12-29T05:39:15;10.50;99.90
6758;DHT22;3416;53.074;8.822;2023-12-29T05:41:42;10.50;99.90
6758;DHT22;3416;53.074;8.822;2023-12-29T05:44:10;10.50;99.90
6758;DHT22;3416;53.074;8.822;2023-12-29T05:46:46;10.50;99.90
6758;DHT22;3416;53.074;8.822;2023-12-29T05:49:15;10.50;99.90
6758;DHT22;3416;53.074;8.822;2023-12-29T05:51:47;10.50;99.90
6758;DHT22;3416;53.074;8.822;2023-12-29T05:54:14;10.50;99.90
6758;DHT22;3416;53.074;8.822;2023-12-29T05:56:45;10.50;99.90
6758;DHT22;3416;53.074;8.822;2023-12-29T05:59:12;10.50;99.90
6758;DHT22;3416;53.074;8.822;2023-12-29T06:01:43;10.50;99.90
6758;DHT22;3416;53.074;8.822;2023-12-29T06:04:11;10.50;99.90
6758;DHT22;3416;53.074;8.822;2023-12-29T06:07:13;10.60;99.90
6758;DHT22;3416;53.074;8.822;2023-12-29T06:09:44;10.60;99.90
6758;DHT22;3416;53.074;8.822;2023-12-29T06:12:14;10.60;99.90
6758;DHT22;3416;53.074;8.822;2023-12-29T06:14:43;10.70;99.90
6758;DHT22;3416;53.074;8.822;2023-12-29T06:17:18;10.60;99.90
6758;DHT22;3416;53.074;8.822;2023-12-29T06:19:48;10.50;99.90
6758;DHT22;3416;53.074;8.822;2023-12-29T06:22:17;10.50;99.90
6758;DHT22;3416;53.074;8.822;2023-12-29T06:24:46;10.50;99.90
6758;DHT22;3416;53.074;8.822;2023-12-29T06:27:13;10.50;99.90
6758;DHT22;3416;53.074;8.822;2023-12-29T06:29:42;10.50;99.90
6758;DHT22;3416;53.074;8.822;2023-12-29T06:32:09;10.50;99.90
6758;DHT22;3416;53.074;8.822;2023-12-29T06:34:37;10.50;99.90
6758;DHT22;3416;53.074;8.822;2023-12-29T06:37:06;10.40;99.90
6758;DHT22;3416;53.074;8.822;2023-12-29T06:39:36;10.50;99.90
6758;DHT22;3416;53.074;8.822;2023-12-29T06:42:05;10.50;99.90
6758;DHT22;3416;53.074;8.822;2023-12-29T06:44:36;10.40;99.90
6758;DHT22;3416;53.074;8.822;2023-12-29T06:47:06;10.40;99.90
6758;DHT22;3416;53.074;8.822;2023-12-29T06:49:35;10.40;99.90
6758;DHT22;3416;53.074;8.822;2023-12-29T06:52:11;10.40;99.90
6758;DHT22;3416;53.074;8.822;2023-12-29T06:54:40;10.40;99.90
6758;DHT22;3416;53.074;8.822;2023-12-29T06:57:10;10.50;99.90
6758;DHT22;3416;53.074;8.822;2023-12-29T06:59:44;10.50;99.90
6758;DHT22;3416;53.074;8.822;2023-12-29T07:02:12;10.50;99.90
6758;DHT22;3416;53.074;8.822;2023-12-29T07:04:44;10.50;99.90
6758;DHT22;3416;53.074;8.822;2023-12-29T07:07:14;10.50;99.90
6758;DHT22;3416;53.074;8.822;2023-12-29T07:09:45;10.50;99.90
6758;DHT22;3416;53.074;8.822;2023-12-29T07:12:15;10.40;99.90
6758;DHT22;3416;53.074;8.822;2023-12-29T07:14:50;10.50;99.90
6758;DHT22;3416;53.074;8.822;2023-12-29T07:17:22;10.50;99.90
6758;DHT22;3416;53.074;8.822;2023-12-29T07:19:55;10.50;99.90
6758;DHT22;3416;53.074;8.822;2023-12-29T07:22:40;10.40;99.90
6758;DHT22;3416;53.074;8.822;2023-12-29T07:25:11;10.50;99.90
6758;DHT22;3416;53.074;8.822;2023-12-29T07:27:51;10.40;99.90
6758;DHT22;3416;53.074;8.822;2023-12-29T07:30:38;10.40;99.90
6758;DHT22;3416;53.074;8.822;2023-12-29T07:33:11;10.30;99.90
6758;DHT22;3416;53.074;8.822;2023-12-29T07:35:43;10.30;99.90
6758;DHT22;3416;53.074;8.822;2023-12-29T07:38:20;10.30;99.90
6758;DHT22;3416;53.074;8.822;2023-12-29T07:40:49;10.30;99.90
6758;DHT22;3416;53.074;8.822;2023-12-29T07:43:16;10.40;99.90
6758;DHT22;3416;53.074;8.822;2023-12-29T07:45:53;10.40;99.90
6758;DHT22;3416;53.074;8.822;2023-12-29T07:48:23;10.40;99.90
6758;DHT22;3416;53.074;8.822;2023-12-29T07:50:51;10.30;99.90
6758;DHT22;3416;53.074;8.822;2023-12-29T07:53:18;10.30;99.90
6758;DHT22;3416;53.074;8.822;2023-12-29T07:55:48;10.30;99.90
6758;DHT22;3416;53.074;8.822;2023-12-29T07:58:20;10.20;99.90
6758;DHT22;3416;53.074;8.822;2023-12-29T08:00:48;10.30;99.90
6758;DHT22;3416;53.074;8.822;2023-12-29T08:03:17;10.30;99.90
6758;DHT22;3416;53.074;8.822;2023-12-29T08:05:44;10.40;99.90
6758;DHT22;3416;53.074;8.822;2023-12-29T08:08:12;10.40;99.90
6758;DHT22;3416;53.074;8.822;2023-12-29T08:10:45;10.50;99.90
6758;DHT22;3416;53.074;8.822;2023-12-29T08:13:23;10.40;99.90
6758;DHT22;3416;53.074;8.822;2023-12-29T08:15:53;10.20;99.90
6758;DHT22;3416;53.074;8.822;2023-12-29T08:18:23;10.10;99.90
6758;DHT22;3416;53.074;8.822;2023-12-29T08:20:50;10.10;99.90
6758;DHT22;3416;53.074;8.822;2023-12-29T08:23:31;9.90;99.90
6758;DHT22;3416;53.074;8.822;2023-12-29T08:26:08;10.10;99.90
6758;DHT22;3416;53.074;8.822;2023-12-29T08:28:43;10.10;99.90
6758;DHT22;3416;53.074;8.822;2023-12-29T08:31:12;10.10;99.90
6758;DHT22;3416;53.074;8.822;2023-12-29T08:33:45;10.10;99.90
6758;DHT22;3416;53.074;8.822;2023-12-29T08:36:21;10.20;99.90
6758;DHT22;3416;53.074;8.822;2023-12-29T08:38:58;10.20;99.90
6758;DHT22;3416;53.074;8.822;2023-12-29T08:41:33;10.00;99.90
6758;DHT22;3416;53.074;8.822;2023-12-29T08:44:04;10.20;99.90
6758;DHT22;3416;53.074;8.822;2023-12-29T08:46:31;10.20;99.90
6758;DHT22;3416;53.074;8.822;2023-12-29T08:48:59;10.20;99.90
6758;DHT22;3416;53.074;8.822;2023-12-29T08:51:26;9.90;99.90
6758;DHT22;3416;53.074;8.822;2023-12-29T08:53:55;9.60;99.90
6758;DHT22;3416;53.074;8.822;2023-12-29T08:56:24;9.40;99.90
6758;DHT22;3416;53.074;8.822;2023-12-29T08:58:53;9.10;99.90
6758;DHT22;3416;53.074;8.822;2023-12-29T09:01:24;9.00;99.90
6758;DHT22;3416;53.074;8.822;2023-12-29T09:03:52;8.80;99.90
6758;DHT22;3416;53.074;8.822;2023-12-29T09:06:21;8.70;99.90
6758;DHT22;3416;53.074;8.822;2023-12-29T09:08:55;8.70;99.90
6758;DHT22;3416;53.074;8.822;2023-12-29T09:11:28;8.60;99.90
6758;DHT22;3416;53.074;8.822;2023-12-29T09:13:58;8.70;99.90
6758;DHT22;3416;53.074;8.822;2023-12-29T09:16:34;8.70;99.90
6758;DHT22;3416;53.074;8.822;2023-12-29T09:19:08;8.70;99.90
6758;DHT22;3416;53.074;8.822;2023-12-29T09:21:35;8.70;99.90
6758;DHT22;3416;53.074;8.822;2023-12-29T09:24:08;8.70;99.90
6758;DHT22;3416;53.074;8.822;2023-12-29T09:26:38;8.70;99.90
6758;DHT22;3416;53.074;8.822;2023-12-29T09:29:12;8.60;99.90
6758;DHT22;3416;53.074;8.822;2023-12-29T09:31:43;8.60;99.90
6758;DHT22;3416;53.074;8.822;2023-12-29T09:34:15;8.60;99.90
6758;DHT22;3416;53.074;8.822;2023-12-29T09:36:44;8.70;99.90
6758;DHT22;3416;53.074;8.822;2023-12-29T09:39:19;8.70;99.90
6758;DHT22;3416;53.074;8.822;2023-12-29T09:41:51;8.70;99.90
6758;DHT22;3416;53.074;8.822;2023-12-29T09:44:21;8.80;99.90
6758;DHT22;3416;53.074;8.822;2023-12-29T09:46:55;8.70;99.90
6758;DHT22;3416;53.074;8.822;2023-12-29T09:49:29;8.90;99.90
6758;DHT22;3416;53.074;8.822;2023-12-29T09:52:05;8.90;99.90
6758;DHT22;3416;53.074;8.822;2023-12-29T09:54:42;9.00;99.90
6758;DHT22;3416;53.074;8.822;2023-12-29T09:57:10;9.10;99.90
6758;DHT22;3416;53.074;8.822;2023-12-29T09:59:50;9.10;99.90
6758;DHT22;3416;53.074;8.822;2023-12-29T10:02:22;9.20;99.90
6758;DHT22;3416;53.074;8.822;2023-12-29T10:04:53;9.40;99.90
6758;DHT22;3416;53.074;8.822;2023-12-29T10:07:24;9.50;99.90
6758;DHT22;3416;53.074;8.822;2023-12-29T10:10:00;9.60;99.90
6758;DHT22;3416;53.074;8.822;2023-12-29T10:12:31;9.60;99.90
6758;DHT22;3416;53.074;8.822;2023-12-29T10:15:14;9.70;99.90
6758;DHT22;3416;53.074;8.822;2023-12-29T10:17:56;9.70;99.90
6758;DHT22;3416;53.074;8.822;2023-12-29T10:20:38;9.70;99.90
6758;DHT22;3416;53.074;8.822;2023-12-29T10:23:10;9.70;99.90
6758;DHT22;3416;53.074;8.822;2023-12-29T10:25:46;9.60;99.90
6758;DHT22;3416;53.074;8.822;2023-12-29T10:28:14;9.60;99.90
6758;DHT22;3416;53.074;8.822;2023-12-29T10:30:43;9.40;99.90
6758;DHT22;3416;53.074;8.822;2023-12-29T10:33:19;9.30;99.90
6758;DHT22;3416;53.074;8.822;2023-12-29T10:36:03;9.10;99.90
6758;DHT22;3416;53.074;8.822;2023-12-29T10:38:33;8.90;99.90
6758;DHT22;3416;53.074;8.822;2023-12-29T10:41:15;8.90;99.90
6758;DHT22;3416;53.074;8.822;2023-12-29T10:43:45;8.80;99.90
6758;DHT22;3416;53.074;8.822;2023-12-29T10:46:17;8.70;99.90
6758;DHT22;3416;53.074;8.822;2023-12-29T10:48:46;8.60;99.90
6758;DHT22;3416;53.074;8.822;2023-12-29T10:51:14;8.50;99.90
6758;DHT22;3416;53.074;8.822;2023-12-29T10:53:54;8.60;99.90
6758;DHT22;3416;53.074;8.822;2023-12-29T10:56:22;8.50;99.90
6758;DHT22;3416;53.074;8.822;2023-12-29T10:58:57;8.50;99.90
6758;DHT22;3416;53.074;8.822;2023-12-29T11:01:29;8.50;99.90
6758;DHT22;3416;53.074;8.822;2023-12-29T11:04:04;8.50;99.90
6758;DHT22;3416;53.074;8.822;2023-12-29T11:06:40;8.50;99.90
6758;DHT22;3416;53.074;8.822;2023-12-29T11:09:15;8.50;99.90
6758;DHT22;3416;53.074;8.822;2023-12-29T11:11:55;8.30;99.90
6758;DHT22;3416;53.074;8.822;2023-12-29T11:14:23;8.40;99.90
6758;DHT22;3416;53.074;8.822;2023-12-29T11:16:52;8.50;99.90
6758;DHT22;3416;53.074;8.822;2023-12-29T11:19:21;8.50;99.90
6758;DHT22;3416;53.074;8.822;2023-12-29T11:21:52;8.60;99.90
6758;DHT22;3416;53.074;8.822;2023-12-29T11:24:22;8.70;99.90
6758;DHT22;3416;53.074;8.822;2023-12-29T11:26:50;8.80;99.90
6758;DHT22;3416;53.074;8.822;2023-12-29T11:29:20;8.90;99.90
6758;DHT22;3416;53.074;8.822;2023-12-29T11:31:48;8.90;99.90
6758;DHT22;3416;53.074;8.822;2023-12-29T11:34:27;9.10;99.90
6758;DHT22;3416;53.074;8.822;2023-12-29T11:37:02;9.10;99.90
6758;DHT22;3416;53.074;8.822;2023-12-29T11:39:40;9.20;99.90
6758;DHT22;3416;53.074;8.822;2023-12-29T11:42:20;9.20;99.90
6758;DHT22;3416;53.074;8.822;2023-12-29T11:44:48;9.30;99.90
6758;DHT22;3416;53.074;8.822;2023-12-29T11:47:46;9.30;99.90
6758;DHT22;3416;53.074;8.822;2023-12-29T11:50:27;9.50;99.90
6758;DHT22;3416;53.074;8.822;2023-12-29T11:52:56;9.40;99.90
6758;DHT22;3416;53.074;8.822;2023-12-29T11:55:35;9.40;99.90
6758;DHT22;3416;53.074;8.822;2023-12-29T12:00:55;9.50;99.90
6758;DHT22;3416;53.074;8.822;2023-12-29T12:03:24;9.50;99.90
6758;DHT22;3416;53.074;8.822;2023-12-29T12:05:56;9.50;99.90
6758;DHT22;3416;53.074;8.822;2023-12-29T12:08:34;9.50;99.90
6758;DHT22;3416;53.074;8.822;2023-12-29T12:11:41;9.50;99.90
6758;DHT22;3416;53.074;8.822;2023-12-29T12:14:45;9.50;99.90
6758;DHT22;3416;53.074;8.822;2023-12-29T12:17:13;9.40;99.90
6758;DHT22;3416;53.074;8.822;2023-12-29T12:19:56;9.40;99.90
6758;DHT22;3416;53.074;8.822;2023-12-29T12:22:31;9.40;99.90
6758;DHT22;3416;53.074;8.822;2023-12-29T12:24:59;9.40;99.90
6758;DHT22;3416;53.074;8.822;2023-12-29T12:27:30;9.40;99.90
6758;DHT22;3416;53.074;8.822;2023-12-29T12:29:59;9.30;99.90
6758;DHT22;3416;53.074;8.822;2023-12-29T12:32:27;9.20;99.90
6758;DHT22;3416;53.074;8.822;2023-12-29T12:34:55;9.20;99.90
6758;DHT22;3416;53.074;8.822;2023-12-29T12:37:26;9.20;99.90
6758;DHT22;3416;53.074;8.822;2023-12-29T12:39:53;9.20;99.90
6758;DHT22;3416;53.074;8.822;2023-12-29T12:42:25;9.20;99.90
6758;DHT22;3416;53.074;8.822;2023-12-29T12:45:04;9.20;99.90
6758;DHT22;3416;53.074;8.822;2023-12-29T12:47:41;9.20;99.90
6758;DHT22;3416;53.074;8.822;2023-12-29T12:50:13;9.30;99.90
6758;DHT22;3416;53.074;8.822;2023-12-29T12:52:48;9.20;99.90
6758;DHT22;3416;53.074;8.822;2023-12-29T12:55:16;9.30;99.90
6758;DHT22;3416;53.074;8.822;2023-12-29T12:57:50;9.30;99.90
6758;DHT22;3416;53.074;8.822;2023-12-29T13:00:21;9.40;99.90
6758;DHT22;3416;53.074;8.822;2023-12-29T13:02:52;9.50;99.90
6758;DHT22;3416;53.074;8.822;2023-12-29T13:05:19;9.50;99.90
6758;DHT22;3416;53.074;8.822;2023-12-29T13:07:54;9.50;99.90
6758;DHT22;3416;53.074;8.822;2023-12-29T13:10:27;9.60;99.90
6758;DHT22;3416;53.074;8.822;2023-12-29T13:13:00;9.60;99.90
6758;DHT22;3416;53.074;8.822;2023-12-29T13:15:30;9.60;99.90
6758;DHT22;3416;53.074;8.822;2023-12-29T13:18:00;9.70;99.90
6758;DHT22;3416;53.074;8.822;2023-12-29T13:20:28;9.60;99.90
6758;DHT22;3416;53.074;8.822;2023-12-29T13:23:00;9.60;99.90
6758;DHT22;3416;53.074;8.822;2023-12-29T13:25:31;9.60;99.90
6758;DHT22;3416;53.074;8.822;2023-12-29T13:28:01;9.60;99.90
6758;DHT22;3416;53.074;8.822;2023-12-29T13:30:33;9.60;99.90
6758;DHT22;3416;53.074;8.822;2023-12-29T13:33:09;9.60;99.90
6758;DHT22;3416;53.074;8.822;2023-12-29T13:35:45;9.50;99.90
6758;DHT22;3416;53.074;8.822;2023-12-29T13:38:29;9.60;99.90
6758;DHT22;3416;53.074;8.822;2023-12-29T13:41:06;9.50;99.90
6758;DHT22;3416;53.074;8.822;2023-12-29T13:43:36;9.70;99.90
6758;DHT22;3416;53.074;8.822;2023-12-29T13:46:10;9.70;99.90
6758;DHT22;3416;53.074;8.822;2023-12-29T13:48:39;9.70;99.90
6758;DHT22;3416;53.074;8.822;2023-12-29T13:51:09;9.70;99.90
6758;DHT22;3416;53.074;8.822;2023-12-29T13:53:39;9.70;99.90
6758;DHT22;3416;53.074;8.822;2023-12-29T13:56:11;9.70;99.90
6758;DHT22;3416;53.074;8.822;2023-12-29T13:58:43;9.70;99.90
6758;DHT22;3416;53.074;8.822;2023-12-29T14:01:20;9.60;99.90
6758;DHT22;3416;53.074;8.822;2023-12-29T14:03:54;9.60;99.90
6758;DHT22;3416;53.074;8.822;2023-12-29T14:06:32;9.60;99.90
6758;DHT22;3416;53.074;8.822;2023-12-29T14:09:15;9.60;99.90
6758;DHT22;3416;53.074;8.822;2023-12-29T14:11:49;9.60;99.90
6758;DHT22;3416;53.074;8.822;2023-12-29T14:14:23;9.60;99.90
6758;DHT22;3416;53.074;8.822;2023-12-29T14:16:57;9.70;99.90
6758;DHT22;3416;53.074;8.822;2023-12-29T14:19:34;9.50;99.90
6758;DHT22;3416;53.074;8.822;2023-12-29T14:22:24;9.50;99.90
6758;DHT22;3416;53.074;8.822;2023-12-29T14:25:12;9.70;99.90
6758;DHT22;3416;53.074;8.822;2023-12-29T14:27:53;9.70;99.90
6758;DHT22;3416;53.074;8.822;2023-12-29T14:30:22;9.70;99.90
6758;DHT22;3416;53.074;8.822;2023-12-29T14:32:56;9.70;99.90
6758;DHT22;3416;53.074;8.822;2023-12-29T14:35:30;9.70;99.90
6758;DHT22;3416;53.074;8.822;2023-12-29T14:38:05;9.60;99.90
6758;DHT22;3416;53.074;8.822;2023-12-29T14:40:46;9.60;99.90
6758;DHT22;3416;53.074;8.822;2023-12-29T14:43:15;9.70;99.90
6758;DHT22;3416;53.074;8.822;2023-12-29T14:45:47;9.50;99.90
6758;DHT22;3416;53.074;8.822;2023-12-29T14:48:24;9.50;99.90
6758;DHT22;3416;53.074;8.822;2023-12-29T14:50:54;9.50;99.90
6758;DHT22;3416;53.074;8.822;2023-12-29T14:53:25;9.60;99.90
6758;DHT22;3416;53.074;8.822;2023-12-29T14:55:54;9.60;99.90
6758;DHT22;3416;53.074;8.822;2023-12-29T14:58:25;9.70;99.90
6758;DHT22;3416;53.074;8.822;2023-12-29T15:00:53;9.70;99.90
6758;DHT22;3416;53.074;8.822;2023-12-29T15:03:25;9.80;99.90
6758;DHT22;3416;53.074;8.822;2023-12-29T15:05:54;9.80;99.90
6758;DHT22;3416;53.074;8.822;2023-12-29T15:08:26;9.80;99.90
6758;DHT22;3416;53.074;8.822;2023-12-29T15:11:01;9.90;99.90
6758;DHT22;3416;53.074;8.822;2023-12-29T15:13:32;9.90;99.90
6758;DHT22;3416;53.074;8.822;2023-12-29T15:16:04;9.90;99.90
6758;DHT22;3416;53.074;8.822;2023-12-29T15:18:36;9.90;99.90
6758;DHT22;3416;53.074;8.822;2023-12-29T15:21:05;9.90;99.90
6758;DHT22;3416;53.074;8.822;2023-12-29T15:23:33;9.90;99.90
6758;DHT22;3416;53.074;8.822;2023-12-29T15:26:02;9.90;99.90
6758;DHT22;3416;53.074;8.822;2023-12-29T15:28:36;10.00;99.90
6758;DHT22;3416;53.074;8.822;2023-12-29T15:31:06;9.90;99.90
6758;DHT22;3416;53.074;8.822;2023-12-29T15:33:38;9.90;99.90
6758;DHT22;3416;53.074;8.822;2023-12-29T15:36:17;10.10;99.90
6758;DHT22;3416;53.074;8.822;2023-12-29T15:38:51;10.10;99.90
6758;DHT22;3416;53.074;8.822;2023-12-29T15:41:20;10.00;99.90
6758;DHT22;3416;53.074;8.822;2023-12-29T15:43:49;10.00;99.90
6758;DHT22;3416;53.074;8.822;2023-12-29T15:46:17;10.00;99.90
6758;DHT22;3416;53.074;8.822;2023-12-29T15:48:48;9.90;99.90
6758;DHT22;3416;53.074;8.822;2023-12-29T15:51:16;9.90;99.90
6758;DHT22;3416;53.074;8.822;2023-12-29T15:53:46;9.80;99.90
6758;DHT22;3416;53.074;8.822;2023-12-29T15:56:20;9.80;99.90
6758;DHT22;3416;53.074;8.822;2023-12-29T15:58:48;9.80;99.90
6758;DHT22;3416;53.074;8.822;2023-12-29T16:01:24;9.60;99.90
6758;DHT22;3416;53.074;8.822;2023-12-29T16:03:56;9.80;99.90
6758;DHT22;3416;53.074;8.822;2023-12-29T16:06:28;9.80;99.90
6758;DHT22;3416;53.074;8.822;2023-12-29T16:08:59;9.90;99.90
6758;DHT22;3416;53.074;8.822;2023-12-29T16:11:41;9.90;99.90
6758;DHT22;3416;53.074;8.822;2023-12-29T16:14:09;9.90;99.90
6758;DHT22;3416;53.074;8.822;2023-12-29T16:16:51;9.90;99.90
6758;DHT22;3416;53.074;8.822;2023-12-29T16:19:18;9.90;99.90
6758;DHT22;3416;53.074;8.822;2023-12-29T16:21:46;9.80;99.90
6758;DHT22;3416;53.074;8.822;2023-12-29T16:24:24;9.80;99.90
6758;DHT22;3416;53.074;8.822;2023-12-29T16:26:54;9.70;99.90
6758;DHT22;3416;53.074;8.822;2023-12-29T16:29:22;9.70;99.90
6758;DHT22;3416;53.074;8.822;2023-12-29T16:31:52;9.80;99.90
6758;DHT22;3416;53.074;8.822;2023-12-29T16:34:19;9.80;99.90
6758;DHT22;3416;53.074;8.822;2023-12-29T16:36:59;9.80;99.90
6758;DHT22;3416;53.074;8.822;2023-12-29T16:39:42;9.70;99.90
6758;DHT22;3416;53.074;8.822;2023-12-29T16:42:15;9.60;99.90
6758;DHT22;3416;53.074;8.822;2023-12-29T16:44:45;9.60;99.90
6758;DHT22;3416;53.074;8.822;2023-12-29T16:47:13;9.50;99.90